sensor_id;sensor_type;location;lat;lon;timestamp;P1;durP1;ratioP1;P2;durP2;ratioP2
73898;SDS011;62234;50.892;12.724;2022-10-18T15:26:50;1.52;;;1.40;;
73898;SDS011;62234;50.892;12.724;2022-10-18T15:29:20;2.47;;;2.28;;
73898;SDS011;62234;50.892;12.724;2022-10-18T15:35:19;1.80;;;1.70;;
73898;SDS011;62234;50.892;12.724;2022-10-18T15:37:56;1.88;;;1.60;;
73898;SDS011;62234;50.892;12.724;2022-10-18T15:40:48;2.10;;;1.30;;
73898;SDS011;62234;50.892;12.724;2022-10-18T15:56:24;1.90;;;0.98;;
73898;SDS011;62234;50.892;12.724;2022-10-18T16:01:50;1.90;;;1.30;;
73898;SDS011;62234;50.892;12.724;2022-10-18T16:04:33;1.85;;;1.73;;
73898;SDS011;62234;50.892;12.724;2022-10-18T16:07:13;3.25;;;1.17;;
73898;SDS011;62234;50.892;12.724;2022-10-18T16:09:48;1.92;;;1.45;;
73898;SDS011;62234;50.892;12.724;2022-10-18T16:12:29;3.90;;;1.30;;
73898;SDS011;62234;50.892;12.724;2022-10-18T16:18:21;3.42;;;1.60;;
73898;SDS011;62234;50.892;12.724;2022-10-18T16:20:57;1.88;;;1.42;;
73898;SDS011;62234;50.892;12.724;2022-10-18T16:26:40;1.70;;;1.60;;
73898;SDS011;62234;50.892;12.724;2022-10-18T16:29:22;1.67;;;1.58;;
73898;SDS011;62234;50.892;12.724;2022-10-18T16:37:46;2.00;;;1.80;;
73898;SDS011;62234;50.892;12.724;2022-10-18T16:40:23;2.22;;;2.10;;
73898;SDS011;62234;50.892;12.724;2022-10-18T16:45:38;4.28;;;1.80;;
73898;SDS011;62234;50.892;12.724;2022-10-18T16:48:05;2.00;;;1.70;;
73898;SDS011;62234;50.892;12.724;2022-10-18T16:50:31;3.83;;;2.40;;
73898;SDS011;62234;50.892;12.724;2022-10-18T16:53:01;4.18;;;2.80;;
73898;SDS011;62234;50.892;12.724;2022-10-18T16:55:36;3.13;;;2.80;;
73898;SDS011;62234;50.892;12.724;2022-10-18T16:58:02;3.17;;;2.88;;
73898;SDS011;62234;50.892;12.724;2022-10-18T17:00:33;5.95;;;4.10;;
73898;SDS011;62234;50.892;12.724;2022-10-18T17:03:00;2.78;;;2.50;;
73898;SDS011;62234;50.892;12.724;2022-10-18T17:05:32;4.13;;;2.65;;
73898;SDS011;62234;50.892;12.724;2022-10-18T17:08:00;2.58;;;2.38;;
73898;SDS011;62234;50.892;12.724;2022-10-18T17:10:44;2.80;;;2.55;;
73898;SDS011;62234;50.892;12.724;2022-10-18T17:13:22;2.88;;;2.28;;
73898;SDS011;62234;50.892;12.724;2022-10-18T17:16:00;4.43;;;2.63;;
73898;SDS011;62234;50.892;12.724;2022-10-18T17:18:30;2.42;;;2.10;;
73898;SDS011;62234;50.892;12.724;2022-10-18T17:20:57;3.58;;;2.90;;
73898;SDS011;62234;50.892;12.724;2022-10-18T17:23:28;3.20;;;2.63;;
73898;SDS011;62234;50.892;12.724;2022-10-18T17:25:54;5.82;;;3.67;;
73898;SDS011;62234;50.892;12.724;2022-10-18T17:28:23;4.43;;;3.30;;
73898;SDS011;62234;50.892;12.724;2022-10-18T17:34:12;4.15;;;3.75;;
73898;SDS011;62234;50.892;12.724;2022-10-18T17:37:19;4.75;;;3.60;;
73898;SDS011;62234;50.892;12.724;2022-10-18T17:40:18;5.15;;;3.65;;
73898;SDS011;62234;50.892;12.724;2022-10-18T17:42:44;5.50;;;3.42;;
73898;SDS011;62234;50.892;12.724;2022-10-18T17:45:12;4.65;;;3.38;;
73898;SDS011;62234;50.892;12.724;2022-10-18T17:47:41;5.57;;;3.67;;
73898;SDS011;62234;50.892;12.724;2022-10-18T17:50:07;9.52;;;4.78;;
73898;SDS011;62234;50.892;12.724;2022-10-18T17:52:48;6.03;;;4.32;;
73898;SDS011;62234;50.892;12.724;2022-10-18T17:55:14;6.32;;;4.38;;
73898;SDS011;62234;50.892;12.724;2022-10-18T17:57:59;9.00;;;5.60;;
73898;SDS011;62234;50.892;12.724;2022-10-18T18:00:45;8.43;;;4.70;;
73898;SDS011;62234;50.892;12.724;2022-10-18T18:03:41;9.65;;;4.78;;
73898;SDS011;62234;50.892;12.724;2022-10-18T18:06:18;9.68;;;5.55;;
73898;SDS011;62234;50.892;12.724;2022-10-18T18:08:55;9.32;;;6.38;;
73898;SDS011;62234;50.892;12.724;2022-10-18T18:11:29;8.98;;;5.40;;
73898;SDS011;62234;50.892;12.724;2022-10-18T18:14:04;8.35;;;5.45;;
73898;SDS011;62234;50.892;12.724;2022-10-18T18:16:36;7.65;;;5.50;;
73898;SDS011;62234;50.892;12.724;2022-10-18T18:19:18;8.82;;;5.93;;
73898;SDS011;62234;50.892;12.724;2022-10-18T18:21:50;10.07;;;6.10;;
73898;SDS011;62234;50.892;12.724;2022-10-18T18:24:20;11.10;;;6.43;;
73898;SDS011;62234;50.892;12.724;2022-10-18T18:27:04;11.80;;;7.07;;
73898;SDS011;62234;50.892;12.724;2022-10-18T18:30:04;15.18;;;7.43;;
73898;SDS011;62234;50.892;12.724;2022-10-18T18:32:38;14.38;;;7.50;;
73898;SDS011;62234;50.892;12.724;2022-10-18T18:35:06;15.45;;;8.23;;
73898;SDS011;62234;50.892;12.724;2022-10-18T18:37:35;14.02;;;7.80;;
73898;SDS011;62234;50.892;12.724;2022-10-18T18:40:04;13.70;;;7.50;;
73898;SDS011;62234;50.892;12.724;2022-10-18T18:42:41;18.13;;;9.15;;
73898;SDS011;62234;50.892;12.724;2022-10-18T18:45:12;15.95;;;8.75;;
73898;SDS011;62234;50.892;12.724;2022-10-18T18:47:38;15.45;;;8.15;;
73898;SDS011;62234;50.892;12.724;2022-10-18T18:50:04;16.20;;;10.60;;
73898;SDS011;62234;50.892;12.724;2022-10-18T18:52:30;17.75;;;9.32;;
73898;SDS011;62234;50.892;12.724;2022-10-18T18:55:19;16.17;;;9.25;;
73898;SDS011;62234;50.892;12.724;2022-10-18T18:58:19;17.73;;;9.75;;
73898;SDS011;62234;50.892;12.724;2022-10-18T19:00:45;19.77;;;9.90;;
73898;SDS011;62234;50.892;12.724;2022-10-18T19:03:15;18.92;;;9.35;;
73898;SDS011;62234;50.892;12.724;2022-10-18T19:05:47;17.70;;;9.32;;
73898;SDS011;62234;50.892;12.724;2022-10-18T19:08:17;16.88;;;9.77;;
73898;SDS011;62234;50.892;12.724;2022-10-18T19:11:10;18.13;;;9.20;;
73898;SDS011;62234;50.892;12.724;2022-10-18T19:13:40;21.30;;;9.75;;
73898;SDS011;62234;50.892;12.724;2022-10-18T19:16:17;23.58;;;10.18;;
73898;SDS011;62234;50.892;12.724;2022-10-18T19:18:54;20.08;;;10.50;;
73898;SDS011;62234;50.892;12.724;2022-10-18T19:21:32;22.83;;;11.05;;
73898;SDS011;62234;50.892;12.724;2022-10-18T19:24:08;21.75;;;12.02;;
